Terminal Aerodrome Forecast
Issued by NWS Dodge City, KS

Home | Current Version | Previous Version | Graphics & Text | Print | Product List | Glossary Off
Versions: 1 2 3 4 5 6 7 8 9 10 11 12 13 14 15 16 17 18 19 20 21 22

000
FTUS43 KDDC 242323
TAFDDC
TAF
KDDC 242323Z 2500/2524 06010G18KT P6SM VCTS SCT045CB
     FM250400 03008KT P6SM VCTS BKN050CB
      TEMPO 2505/2508 4SM TS OVC030CB
     FM250900 02007KT 5SM -SHRA VCTS OVC045CB
      TEMPO 2509/2512 4SM -TSRA OVC015CB
     FM251600 03007KT P6SM OVC035=

USA.gov is the U.S. government's official web portal to all federal, state and local government web resources and services.